Time;durP1;ratioP1;P1;durP2;ratioP2;P2;SDS_P1;SDS_P2;PMS_P1;PMS_P2;Temp;Humidity;BMP_temperature;BMP_pressure;BME280_temperature;BME280_humidity;BME280_pressure;Samples;Min_cycle;Max_cycle;Signal;HPM_P1;HPM_P2
2023/03/30 00:01:20;;;;;;;;;7.67;6.00;;;;;19.69;82.12;100516.72;5099800;27;45411;-79
2023/03/30 00:03:46;;;;;;;;;7.33;6.00;;;;;19.78;80.87;100534.13;5099836;27;45352;-79
2023/03/30 00:06:19;;;;;;;;;6.00;6.00;;;;;19.75;80.89;100531.94;5099288;27;45338;-79
2023/03/30 00:08:45;;;;;;;;;6.33;6.33;;;;;19.73;82.06;100531.38;5080966;27;48142;-79
2023/03/30 00:11:14;;;;;;;;;7.00;5.67;;;;;19.73;81.03;100531.38;5080990;27;45502;-79
2023/03/30 00:13:42;;;;;;;;;7.67;7.67;;;;;19.72;80.99;100535.09;5099303;27;45402;-79
2023/03/30 00:16:11;;;;;;;;;5.33;5.00;;;;;19.70;81.91;100531.84;5099514;27;45328;-79
2023/03/30 00:18:38;;;;;;;;;7.00;6.00;;;;;19.45;81.17;100511.41;5080996;27;46082;-79
2023/03/30 00:21:04;;;;;;;;;5.33;5.00;;;;;19.57;81.64;100526.75;5099330;27;45274;-79
2023/03/30 00:23:31;;;;;;;;;7.00;3.33;;;;;19.60;82.14;100526.25;5079217;27;45422;-79
2023/03/30 00:25:56;;;;;;;;;7.33;6.00;;;;;19.48;82.52;100504.75;5099331;27;45515;-79
2023/03/30 00:28:22;;;;;;;;;6.33;6.00;;;;;19.53;82.94;100507.53;5097442;27;46792;-79
2023/03/30 00:30:47;;;;;;;;;8.67;8.67;;;;;19.41;83.80;100486.84;5074072;27;45282;-79
2023/03/30 00:33:13;;;;;;;;;8.00;7.00;;;;;19.47;85.70;100498.53;5099227;27;45250;-79
2023/03/30 00:35:39;;;;;;;;;7.67;7.67;;;;;19.39;85.69;100480.03;5098912;27;45361;-79
2023/03/30 00:38:04;;;;;;;;;8.00;8.00;;;;;19.36;87.41;100477.84;5080644;27;47106;-79
2023/03/30 00:40:33;;;;;;;;;8.00;7.33;;;;;19.22;88.34;100477.28;5081270;27;45406;-79
2023/03/30 00:42:59;;;;;;;;;8.67;7.00;;;;;19.16;89.78;100476.38;5098982;27;45353;-79
2023/03/30 00:45:27;;;;;;;;;8.33;6.00;;;;;19.01;89.77;100464.19;5099271;27;45219;-79
2023/03/30 00:48:31;;;;;;;;;5.00;5.00;;;;;19.10;91.39;100485.41;5098624;27;45465;-79
2023/03/30 00:51:06;;;;;;;;;8.00;8.00;;;;;18.88;90.88;100456.34;5089973;27;45311;-79
2023/03/30 00:53:44;;;;;;;;;9.00;7.00;;;;;18.85;91.00;100446.88;5099287;27;45244;-79
2023/03/30 00:56:12;;;;;;;;;7.00;7.00;;;;;18.88;91.47;100451.81;5098585;27;45279;-79
2023/03/30 00:58:38;;;;;;;;;8.67;8.00;;;;;18.98;91.47;100461.16;5100477;27;46581;-79
2023/03/30 01:01:09;;;;;;;;;7.67;6.00;;;;;18.90;90.07;100447.00;5102073;27;45289;-79
2023/03/30 01:03:46;;;;;;;;;7.67;7.00;;;;;18.96;90.35;100455.19;5102740;27;45370;-79
2023/03/30 01:06:16;;;;;;;;;8.00;8.00;;;;;18.95;90.37;100457.06;5101793;27;45349;-79
2023/03/30 01:08:43;;;;;;;;;6.00;5.00;;;;;18.82;90.58;100438.50;5102229;27;45543;-79
2023/03/30 01:11:10;;;;;;;;;7.00;7.00;;;;;18.83;90.48;100426.66;5101898;27;45342;-79
2023/03/30 01:13:41;;;;;;;;;6.67;6.33;;;;;18.93;89.61;100438.47;5083939;27;45327;-79
2023/03/30 01:16:40;;;;;;;;;4.67;4.67;;;;;18.95;89.72;100457.06;5102093;27;45172;-80
2023/03/30 01:19:23;;;;;;;;;6.00;6.00;;;;;18.95;89.75;100462.47;5083325;27;48508;-79
2023/03/30 01:22:22;;;;;;;;;5.00;5.00;;;;;19.00;89.32;100450.94;5101897;27;45295;-79
2023/03/30 01:25:32;;;;;;;;;7.33;6.00;;;;;18.72;89.20;100442.59;5101980;27;45353;-79
2023/03/30 01:28:27;;;;;;;;;5.67;5.67;;;;;19.00;89.09;100481.41;5037385;27;45479;-79
2023/03/30 01:31:09;;;;;;;;;5.67;5.33;;;;;18.93;89.68;100465.38;5078328;27;45358;-79
2023/03/30 01:34:19;;;;;;;;;4.33;4.33;;;;;19.04;88.98;100489.84;5083103;27;45383;-79
2023/03/30 01:36:56;;;;;;;;;4.33;4.33;;;;;19.05;89.34;100486.06;5050217;28;45374;-79
2023/03/30 01:39:35;;;;;;;;;4.00;4.00;;;;;19.04;89.03;100474.47;5061248;28;45384;-79
2023/03/30 01:42:31;;;;;;;;;5.00;5.00;;;;;18.79;90.00;100426.31;5061019;28;45285;-79
2023/03/30 01:45:10;;;;;;;;;3.00;3.00;;;;;18.93;88.57;100449.22;5060744;28;45596;-79
2023/03/30 01:47:37;;;;;;;;;4.00;4.00;;;;;18.91;88.61;100451.34;5061126;28;45315;-79
2023/03/30 01:50:26;;;;;;;;;6.00;6.00;;;;;19.05;90.12;100465.34;5060741;28;45426;-79
2023/03/30 01:53:16;;;;;;;;;6.33;5.33;;;;;19.11;91.13;100476.25;5058484;28;45345;-79
2023/03/30 01:55:56;;;;;;;;;4.00;4.00;;;;;19.04;89.41;100469.09;5053216;28;45332;-79
2023/03/30 01:58:27;;;;;;;;;4.00;4.00;;;;;19.00;88.79;100465.25;5061000;28;45212;-79
2023/03/30 02:00:54;;;;;;;;;4.00;4.00;;;;;19.01;88.87;100469.56;5059049;28;46000;-79
2023/03/30 02:03:26;;;;;;;;;3.33;3.33;;;;;19.04;87.64;100492.53;5076393;28;47447;-79
2023/03/30 02:05:57;;;;;;;;;4.00;4.00;;;;;18.89;88.47;100474.16;5060397;28;45347;-79
2023/03/30 02:08:28;;;;;;;;;6.00;6.00;;;;;19.06;88.20;100495.78;5060829;28;45441;-79
2023/03/30 02:10:56;;;;;;;;;4.00;4.00;;;;;18.91;87.58;100467.50;5059654;28;45486;-79
2023/03/30 02:13:25;;;;;;;;;7.00;6.00;;;;;18.88;87.64;100459.06;5060624;28;46281;-79
2023/03/30 02:15:57;;;;;;;;;4.00;4.00;;;;;18.96;87.64;100457.88;5059409;28;45378;-79
2023/03/30 02:18:22;;;;;;;;;5.67;5.67;;;;;18.79;87.29;100429.81;5059565;28;45441;-79
2023/03/30 02:20:48;;;;;;;;;5.00;5.00;;;;;18.91;87.14;100448.63;5059864;28;45467;-79
2023/03/30 02:23:17;;;;;;;;;4.00;4.00;;;;;18.89;87.79;100466.91;5060261;28;46176;-79
2023/03/30 02:25:43;;;;;;;;;7.33;6.00;;;;;18.86;88.12;100486.22;5059877;28;45660;-79
2023/03/30 02:28:08;;;;;;;;;8.33;7.33;;;;;18.71;87.47;100475.13;5058765;28;45377;-78
2023/03/30 02:30:38;;;;;;;;;4.33;4.33;;;;;18.77;88.27;100493.84;5041118;28;45605;-79
2023/03/30 02:33:06;;;;;;;;;6.33;6.33;;;;;18.79;87.72;100502.50;5038951;28;47528;-79
2023/03/30 02:35:50;;;;;;;;;4.33;3.00;;;;;18.70;87.43;100495.03;5085363;27;45436;-79
2023/03/30 02:38:31;;;;;;;;;4.67;4.67;;;;;18.77;87.63;100495.72;5084223;27;45516;-78
2023/03/30 02:41:30;;;;;;;;;9.00;5.33;;;;;18.78;87.44;100517.03;5100944;27;45331;-79
2023/03/30 02:44:08;;;;;;;;;4.33;4.33;;;;;18.79;87.25;100505.19;5050697;28;48403;-78
2023/03/30 02:46:50;;;;;;;;;5.67;5.67;;;;;18.68;87.42;100512.22;5097822;27;45171;-78
2023/03/30 02:49:21;;;;;;;;;6.67;5.67;;;;;18.71;87.80;100537.03;5101160;27;45425;-79
2023/03/30 02:51:59;;;;;;;;;5.00;5.00;;;;;18.63;88.10;100525.56;5081877;27;45422;-78
2023/03/30 02:54:37;;;;;;;;;3.00;3.00;;;;;18.65;87.53;100546.88;5100229;27;45463;-79
2023/03/30 02:57:17;;;;;;;;;5.33;4.00;;;;;18.43;87.67;100496.28;5101057;27;45399;-79
2023/03/30 02:59:53;;;;;;;;;4.00;4.00;;;;;18.45;87.92;100523.78;5100863;27;45314;-77
2023/03/30 03:02:25;;;;;;;;;4.00;4.00;;;;;18.39;88.08;100503.19;5082018;27;46329;-78
2023/03/30 03:04:52;;;;;;;;;3.00;3.00;;;;;18.41;87.75;100498.41;5100367;27;45464;-77
2023/03/30 03:07:19;;;;;;;;;3.00;3.00;;;;;18.34;87.99;100497.69;5100351;27;45429;-78
2023/03/30 03:09:44;;;;;;;;;5.00;3.67;;;;;18.51;88.34;100517.50;5100375;27;45499;-78
2023/03/30 03:12:10;;;;;;;;;4.33;3.33;;;;;18.46;87.96;100530.00;5100295;27;45289;-78
2023/03/30 03:14:36;;;;;;;;;2.67;2.67;;;;;18.35;87.45;100515.47;5100181;27;45512;-78
2023/03/30 03:17:03;;;;;;;;;3.33;3.33;;;;;18.46;87.78;100549.63;5100225;27;45447;-77
2023/03/30 03:19:29;;;;;;;;;4.00;4.00;;;;;18.33;87.59;100510.34;5100349;27;45241;-78
2023/03/30 03:21:54;;;;;;;;;3.00;3.00;;;;;18.44;87.74;100511.41;5099369;27;45213;-77
2023/03/30 03:24:20;;;;;;;;;3.00;3.00;;;;;18.21;87.88;100469.13;5099986;27;46177;-78
2023/03/30 03:26:46;;;;;;;;;1.00;0.67;;;;;18.40;87.36;100532.56;5099932;27;45637;-78
2023/03/30 03:29:11;;;;;;;;;2.33;2.33;;;;;18.14;87.97;100490.78;5092450;27;45287;-78
2023/03/30 03:31:37;;;;;;;;;3.33;2.00;;;;;18.39;88.09;100527.41;5094137;27;45389;-78
2023/03/30 03:34:02;;;;;;;;;2.00;2.00;;;;;18.02;87.92;100474.59;5099989;27;46103;-77
2023/03/30 03:36:27;;;;;;;;;2.33;2.33;;;;;18.40;87.39;100521.78;5099913;27;45421;-78
2023/03/30 03:38:53;;;;;;;;;3.00;3.00;;;;;18.35;87.92;100512.78;5082071;27;45411;-78
2023/03/30 03:41:18;;;;;;;;;3.67;2.00;;;;;18.38;87.42;100539.22;5099600;27;45447;-77
2023/03/30 03:43:44;;;;;;;;;1.67;1.00;;;;;18.31;87.33;100535.84;5081772;27;46062;-77
2023/03/30 03:46:10;;;;;;;;;2.00;2.00;;;;;18.31;87.35;100533.94;5099965;27;45536;-78
2023/03/30 03:48:35;;;;;;;;;1.00;1.00;;;;;18.23;87.56;100527.03;5100481;27;45441;-78
2023/03/30 03:51:01;;;;;;;;;3.00;2.00;;;;;18.01;87.92;100476.44;5081442;27;47104;-78
2023/03/30 03:53:27;;;;;;;;;0.67;0.67;;;;;18.02;88.32;100491.53;5100183;27;45428;-78
2023/03/30 03:55:53;;;;;;;;;1.00;1.00;;;;;18.05;88.80;100498.34;5081198;27;45264;-78
2023/03/30 03:58:19;;;;;;;;;2.00;1.00;;;;;18.12;88.76;100525.13;5081502;27;45306;-78
2023/03/30 04:00:45;;;;;;;;;1.67;1.00;;;;;18.05;89.12;100517.94;5099764;27;45447;-77
2023/03/30 04:03:11;;;;;;;;;2.67;2.00;;;;;17.97;89.35;100522.84;5099327;27;45969;-78
2023/03/30 04:05:36;;;;;;;;;4.00;2.00;;;;;17.92;89.44;100513.59;5098201;27;45171;-78
2023/03/30 04:08:02;;;;;;;;;2.33;2.33;;;;;17.70;89.78;100491.78;5073854;27;45626;-78
2023/03/30 04:10:28;;;;;;;;;2.00;2.00;;;;;17.62;89.92;100502.84;5080804;27;45718;-78
2023/03/30 04:12:55;;;;;;;;;2.00;1.00;;;;;17.79;89.69;100533.44;5099166;27;46032;-77
2023/03/30 04:15:21;;;;;;;;;1.00;1.00;;;;;17.77;90.35;100550.81;5099283;27;45374;-77
2023/03/30 04:17:48;;;;;;;;;2.33;1.00;;;;;17.74;91.02;100556.63;5099882;27;45427;-77
2023/03/30 04:20:15;;;;;;;;;2.00;1.00;;;;;17.72;91.09;100562.25;5099063;27;46242;-77
2023/03/30 04:22:40;;;;;;;;;3.00;3.00;;;;;17.58;91.30;100542.78;5099420;27;45319;-78
2023/03/30 04:25:10;;;;;;;;;1.00;1.00;;;;;17.60;91.58;100551.44;5098946;27;45219;-77
2023/03/30 04:27:36;;;;;;;;;3.00;3.00;;;;;17.54;91.82;100547.78;5098930;27;45420;-78
2023/03/30 04:30:05;;;;;;;;;2.00;2.00;;;;;17.59;91.74;100548.97;5085637;27;45534;-77
2023/03/30 04:32:33;;;;;;;;;2.00;2.00;;;;;17.50;92.58;100535.84;5099613;27;46216;-77
2023/03/30 04:35:00;;;;;;;;;1.00;1.00;;;;;17.51;92.59;100537.50;5102490;27;45372;-78
2023/03/30 04:37:29;;;;;;;;;2.00;2.00;;;;;17.40;93.10;100538.25;5103016;27;45393;-78
2023/03/30 04:39:59;;;;;;;;;3.67;2.00;;;;;17.37;93.14;100528.78;5102603;27;45311;-77
2023/03/30 04:42:29;;;;;;;;;2.00;2.00;;;;;17.39;93.56;100544.69;5102425;27;46558;-78
2023/03/30 04:44:58;;;;;;;;;0.67;0.00;;;;;17.16;94.24;100500.53;5102751;27;45286;-78
2023/03/30 04:47:27;;;;;;;;;2.00;1.00;;;;;17.11;94.12;100501.19;5102875;27;45447;-77
2023/03/30 04:49:53;;;;;;;;;2.00;1.00;;;;;17.14;94.73;100513.34;5102694;27;45332;-77
2023/03/30 04:52:18;;;;;;;;;2.00;2.00;;;;;17.25;95.23;100536.78;5076260;27;46939;-77
2023/03/30 04:54:44;;;;;;;;;1.33;1.33;;;;;17.05;95.92;100510.09;5102859;27;45415;-77
2023/03/30 04:57:11;;;;;;;;;2.00;2.00;;;;;16.94;95.96;100503.59;5102644;27;45202;-76
2023/03/30 04:59:36;;;;;;;;;3.33;2.00;;;;;17.08;96.78;100533.03;5103031;27;45327;-77
2023/03/30 05:02:02;;;;;;;;;3.00;3.00;;;;;16.99;96.83;100530.63;5084154;27;47642;-76
2023/03/30 05:04:28;;;;;;;;;4.00;4.00;;;;;16.95;97.44;100529.44;5075110;27;45580;-77
2023/03/30 05:06:54;;;;;;;;;3.00;3.00;;;;;16.91;97.62;100533.56;5098269;27;45486;-78
2023/03/30 05:09:20;;;;;;;;;3.67;3.00;;;;;16.81;98.31;100531.41;5099725;27;45489;-77
2023/03/30 05:11:45;;;;;;;;;2.00;2.00;;;;;16.70;98.55;100519.53;5101891;27;45380;-77
2023/03/30 05:14:11;;;;;;;;;3.67;3.67;;;;;16.73;98.44;100529.81;5101766;27;45346;-77
2023/03/30 05:16:36;;;;;;;;;3.00;1.67;;;;;16.87;99.60;100569.94;5102478;27;45489;-77
2023/03/30 05:19:02;;;;;;;;;4.00;2.33;;;;;16.81;100.00;100568.97;5101818;27;45323;-75
2023/03/30 05:21:30;;;;;;;;;3.00;3.00;;;;;16.63;100.00;100542.91;5101839;27;45509;-78
2023/03/30 05:23:55;;;;;;;;;4.00;3.33;;;;;16.82;100.00;100577.84;5102125;27;45293;-77
2023/03/30 05:26:20;;;;;;;;;3.00;2.67;;;;;16.58;100.00;100546.25;5102025;27;45217;-76
2023/03/30 05:28:46;;;;;;;;;3.00;3.00;;;;;16.81;100.00;100592.31;5091072;27;45432;-77
2023/03/30 05:31:12;;;;;;;;;3.33;3.00;;;;;16.53;100.00;100560.31;5076462;27;45920;-76
2023/03/30 05:33:37;;;;;;;;;2.67;2.00;;;;;16.50;100.00;100581.41;5090260;27;45382;-76
2023/03/30 05:36:03;;;;;;;;;2.33;2.33;;;;;16.53;100.00;100586.34;5101921;27;45337;-76
2023/03/30 05:38:28;;;;;;;;;3.00;1.67;;;;;16.51;100.00;100586.56;5102199;27;45439;-76
2023/03/30 05:40:54;;;;;;;;;3.00;3.00;;;;;16.72;100.00;100607.84;5101781;27;46010;-78
2023/03/30 05:43:20;;;;;;;;;4.00;2.33;;;;;16.74;100.00;100620.03;5101140;27;46437;-76
2023/03/30 05:45:45;;;;;;;;;6.67;3.67;;;;;16.63;100.00;100613.50;5083686;27;45362;-77
2023/03/30 05:48:10;;;;;;;;;3.67;3.67;;;;;16.74;100.00;100629.94;5101722;27;45398;-76
2023/03/30 05:50:36;;;;;;;;;2.00;2.00;;;;;16.70;100.00;100634.91;5083279;27;46864;-77
2023/03/30 05:53:02;;;;;;;;;3.67;3.00;;;;;16.75;100.00;100642.31;5101005;27;45339;-76
2023/03/30 05:55:27;;;;;;;;;2.00;2.00;;;;;16.72;100.00;100632.00;5101599;27;45361;-77
2023/03/30 05:57:53;;;;;;;;;3.00;2.33;;;;;16.77;100.00;100641.03;5101057;27;45436;-76
2023/03/30 06:00:20;;;;;;;;;5.00;3.00;;;;;16.73;100.00;100645.22;5101436;27;46415;-76
2023/03/30 06:02:45;;;;;;;;;1.67;1.67;;;;;16.75;100.00;100636.94;5101253;27;45337;-76
2023/03/30 06:05:11;;;;;;;;;5.00;4.00;;;;;16.82;100.00;100644.94;5101578;27;45343;-76
2023/03/30 06:07:36;;;;;;;;;3.33;2.33;;;;;16.71;100.00;100635.75;5065329;28;47351;-76
2023/03/30 06:10:03;;;;;;;;;3.00;2.00;;;;;16.72;100.00;100642.75;5091778;27;46018;-76
2023/03/30 06:12:30;;;;;;;;;2.00;1.33;;;;;16.75;100.00;100661.09;5082823;27;46064;-77
2023/03/30 06:14:55;;;;;;;;;2.33;2.00;;;;;16.67;100.00;100646.06;5101105;27;45391;-77
2023/03/30 06:17:21;;;;;;;;;1.33;1.33;;;;;16.61;100.00;100641.59;5100997;27;45261;-76
2023/03/30 06:19:46;;;;;;;;;3.00;3.00;;;;;16.66;100.00;100647.94;5100977;27;45252;-76
2023/03/30 06:22:11;;;;;;;;;2.33;2.33;;;;;16.68;100.00;100653.09;5100732;27;45401;-77
2023/03/30 06:24:37;;;;;;;;;2.67;1.00;;;;;16.68;100.00;100668.38;5101585;27;45607;-76
2023/03/30 06:27:02;;;;;;;;;2.00;2.00;;;;;16.62;100.00;100659.34;5083822;27;48753;-76
2023/03/30 06:29:28;;;;;;;;;4.00;4.00;;;;;16.60;100.00;100666.75;5072592;28;45439;-75
2023/03/30 06:31:53;;;;;;;;;3.00;3.00;;;;;16.65;100.00;100672.31;5096693;27;45509;-76
2023/03/30 06:34:19;;;;;;;;;3.33;3.33;;;;;16.67;100.00;100675.59;5100847;27;45217;-76
2023/03/30 06:36:45;;;;;;;;;3.00;3.00;;;;;16.81;100.00;100684.38;5082260;27;46096;-76
2023/03/30 06:39:11;;;;;;;;;2.00;2.00;;;;;16.85;100.00;100682.91;5100911;27;46406;-76
2023/03/30 06:41:36;;;;;;;;;1.00;1.00;;;;;16.91;100.00;100676.66;5082244;27;46670;-77
2023/03/30 06:44:01;;;;;;;;;3.33;2.00;;;;;16.94;100.00;100680.75;5081794;27;57497;-76
2023/03/30 06:46:27;;;;;;;;;2.00;2.00;;;;;17.07;100.00;100689.78;5082349;27;46012;-76
2023/03/30 06:48:52;;;;;;;;;3.33;2.00;;;;;17.06;100.00;100685.44;5099863;27;45409;-76
2023/03/30 06:51:18;;;;;;;;;3.00;3.00;;;;;17.07;100.00;100684.44;5100373;27;45731;-76
2023/03/30 06:53:44;;;;;;;;;3.67;3.00;;;;;17.06;100.00;100680.88;5082478;27;45422;-76
2023/03/30 06:56:10;;;;;;;;;2.00;2.00;;;;;17.09;100.00;100668.94;5099588;27;45358;-76
2023/03/30 06:58:36;;;;;;;;;3.00;2.00;;;;;17.21;100.00;100687.84;5100331;27;45433;-76
2023/03/30 07:01:09;;;;;;;;;3.00;2.67;;;;;17.23;100.00;100693.78;5100626;27;45302;-76
2023/03/30 07:03:34;;;;;;;;;3.33;2.00;;;;;17.31;100.00;100704.25;5079231;27;45374;-76
2023/03/30 07:05:59;;;;;;;;;3.00;2.33;;;;;17.31;100.00;100703.44;5097139;27;45389;-76
2023/03/30 07:08:25;;;;;;;;;2.00;2.00;;;;;17.38;100.00;100696.97;5100412;27;45317;-77
2023/03/30 07:10:50;;;;;;;;;3.00;3.00;;;;;17.40;100.00;100710.19;5099990;27;50172;-76
2023/03/30 07:13:16;;;;;;;;;1.33;1.00;;;;;17.41;100.00;100719.88;5100459;27;45272;-76
2023/03/30 07:15:41;;;;;;;;;2.67;2.67;;;;;17.40;100.00;100732.50;5099926;27;45268;-76
2023/03/30 07:18:07;;;;;;;;;1.33;1.33;;;;;17.44;100.00;100730.19;5096906;27;46260;-76
2023/03/30 07:20:32;;;;;;;;;4.00;3.33;;;;;17.43;100.00;100725.84;5087075;27;45315;-76
2023/03/30 07:22:58;;;;;;;;;2.00;2.00;;;;;17.45;100.00;100726.44;5099617;27;45860;-78
2023/03/30 07:25:23;;;;;;;;;4.67;3.00;;;;;17.48;100.00;100726.00;5100380;27;45491;-78
2023/03/30 07:27:48;;;;;;;;;3.67;2.00;;;;;17.54;100.00;100737.75;5099305;27;46178;-77
2023/03/30 07:30:14;;;;;;;;;3.67;1.00;;;;;17.56;100.00;100732.13;5090953;27;49327;-78
2023/03/30 07:32:39;;;;;;;;;1.00;1.00;;;;;17.52;100.00;100735.28;5100386;27;45227;-76
2023/03/30 07:35:05;;;;;;;;;3.00;1.33;;;;;17.52;100.00;100740.66;5098854;27;45503;-76
2023/03/30 07:37:31;;;;;;;;;4.00;4.00;;;;;17.60;100.00;100736.03;5098543;27;45333;-76
2023/03/30 07:39:56;;;;;;;;;4.67;3.67;;;;;17.60;100.00;100733.34;5081727;27;46231;-76
2023/03/30 07:42:22;;;;;;;;;0.00;0.00;;;;;17.70;100.00;100747.09;5099479;27;45533;-76
2023/03/30 07:44:48;;;;;;;;;2.00;2.00;;;;;17.67;100.00;100740.31;5100046;27;45488;-77
2023/03/30 07:47:14;;;;;;;;;2.00;2.00;;;;;17.68;100.00;100746.50;5099642;27;45461;-77
2023/03/30 07:49:39;;;;;;;;;2.33;2.33;;;;;17.65;100.00;100744.25;5099943;27;45425;-77
2023/03/30 07:52:06;;;;;;;;;3.00;2.00;;;;;17.73;100.00;100751.19;5099962;27;45469;-77
2023/03/30 07:54:31;;;;;;;;;2.33;1.33;;;;;17.78;100.00;100752.19;5099885;27;45361;-77
2023/03/30 07:56:56;;;;;;;;;3.00;3.00;;;;;17.85;100.00;100748.59;5099638;27;46191;-77
2023/03/30 07:59:23;;;;;;;;;3.33;2.00;;;;;18.00;99.54;100775.13;5099349;27;45314;-77
2023/03/30 08:01:53;;;;;;;;;5.00;2.00;;;;;17.98;99.70;100753.84;5072244;28;45282;-76
2023/03/30 08:04:20;;;;;;;;;3.00;2.67;;;;;18.12;98.62;100775.22;5077213;27;45959;-77
2023/03/30 08:06:46;;;;;;;;;5.00;2.00;;;;;18.08;96.99;100768.63;5100099;27;45312;-76
2023/03/30 08:09:11;;;;;;;;;2.67;2.67;;;;;18.10;96.31;100779.97;5102999;27;45381;-77
2023/03/30 08:11:37;;;;;;;;;2.67;2.67;;;;;18.04;96.34;100782.53;5103497;27;45224;-77
2023/03/30 08:14:03;;;;;;;;;2.00;2.00;;;;;18.07;95.65;100792.00;5102660;27;45204;-76
2023/03/30 08:16:29;;;;;;;;;3.00;3.00;;;;;18.07;95.49;100781.25;5084465;27;47457;-76
2023/03/30 08:18:54;;;;;;;;;2.00;2.00;;;;;18.08;95.36;100780.19;5102960;27;45271;-76
2023/03/30 08:21:24;;;;;;;;;2.00;0.00;;;;;18.18;94.77;100785.09;5103400;27;45286;-76
2023/03/30 08:23:52;;;;;;;;;5.00;3.67;;;;;18.16;94.63;100785.31;5102767;27;45720;-76
2023/03/30 08:26:17;;;;;;;;;4.00;2.00;;;;;18.26;93.76;100803.63;5084423;27;46207;-76
2023/03/30 08:28:43;;;;;;;;;5.00;3.00;;;;;18.23;93.36;100792.50;5098632;27;45310;-77
2023/03/30 08:31:11;;;;;;;;;3.00;2.00;;;;;18.22;92.67;100791.66;5082819;28;45218;-77
2023/03/30 08:33:38;;;;;;;;;2.00;2.00;;;;;18.26;91.68;100790.16;5081903;27;46152;-77
2023/03/30 08:36:04;;;;;;;;;3.67;3.00;;;;;18.32;92.09;100793.84;5080491;28;47875;-77
2023/03/30 08:38:29;;;;;;;;;4.33;3.00;;;;;18.50;91.97;100802.94;5080478;28;45398;-77
2023/03/30 08:40:55;;;;;;;;;2.33;1.67;;;;;18.56;90.78;100788.59;5082619;27;45449;-77
2023/03/30 08:43:35;;;;;;;;;4.33;3.00;;;;;18.69;89.49;100809.13;5082341;27;45477;-76
2023/03/30 08:46:01;;;;;;;;;1.00;1.00;;;;;18.75;88.65;100805.53;5081004;28;47213;-77
2023/03/30 08:48:34;;;;;;;;;2.33;2.00;;;;;18.63;88.64;100789.31;5082110;28;45271;-77
2023/03/30 08:51:07;;;;;;;;;5.00;4.67;;;;;18.67;88.00;100811.22;5081998;27;45278;-77
2023/03/30 08:53:33;;;;;;;;;5.33;3.00;;;;;18.63;88.30;100800.09;5080911;28;46110;-76
2023/03/30 08:56:09;;;;;;;;;3.00;2.00;;;;;18.63;87.36;100804.63;5080591;28;46028;-77
2023/03/30 08:58:50;;;;;;;;;5.33;3.00;;;;;18.70;86.27;100807.25;5082055;27;45307;-77
2023/03/30 09:01:24;;;;;;;;;6.00;5.00;;;;;18.67;87.45;100795.88;5082179;27;45371;-75
2023/03/30 09:04:11;;;;;;;;;3.33;2.00;;;;;18.85;87.32;100817.63;5080906;28;47053;-77
2023/03/30 09:06:52;;;;;;;;;4.33;3.00;;;;;18.93;86.23;100820.81;5049227;28;47278;-78
2023/03/30 09:09:21;;;;;;;;;4.00;3.67;;;;;18.93;86.07;100814.59;5079564;28;45299;-76
2023/03/30 09:11:58;;;;;;;;;5.00;2.67;;;;;18.91;85.24;100814.81;5081695;28;45476;-76
2023/03/30 09:14:33;;;;;;;;;2.00;2.00;;;;;19.01;85.37;100826.94;5079922;27;45765;-76
2023/03/30 09:17:12;;;;;;;;;3.33;2.67;;;;;18.99;85.11;100808.31;5078196;28;45806;-76
2023/03/30 09:19:54;;;;;;;;;5.33;2.00;;;;;19.01;84.10;100810.78;5054164;28;45293;-77
2023/03/30 09:22:20;;;;;;;;;3.67;1.00;;;;;19.07;84.72;100827.88;5080661;27;45139;-76
2023/03/30 09:24:46;;;;;;;;;3.67;3.67;;;;;19.06;84.84;100832.44;5080451;28;46260;-77
2023/03/30 09:27:25;;;;;;;;;4.00;2.00;;;;;19.17;85.13;100829.00;5079173;27;47282;-77
2023/03/30 09:29:54;;;;;;;;;2.00;2.00;;;;;19.24;84.96;100836.16;5072198;28;45449;-77
2023/03/30 09:32:42;;;;;;;;;5.67;4.33;;;;;19.20;84.89;100843.88;5079888;28;45337;-77
2023/03/30 09:35:20;;;;;;;;;3.00;3.00;;;;;19.11;85.37;100837.16;5090746;27;45563;-77
2023/03/30 09:37:45;;;;;;;;;4.67;4.00;;;;;19.04;86.58;100832.66;5093120;27;45342;-79
2023/03/30 09:40:35;;;;;;;;;3.00;3.00;;;;;19.02;87.42;100828.56;5097245;27;45456;-79
2023/03/30 09:43:27;;;;;;;;;4.33;4.00;;;;;19.04;87.55;100856.09;5102015;27;45226;-79
2023/03/30 09:45:55;;;;;;;;;3.67;2.67;;;;;18.90;88.17;100850.06;5083374;27;47427;-79
2023/03/30 09:48:20;;;;;;;;;6.67;4.00;;;;;18.75;91.61;100866.59;5101564;27;45250;-78
2023/03/30 09:50:46;;;;;;;;;3.67;3.00;;;;;18.64;95.01;100858.25;5101306;27;50239;-78
2023/03/30 09:53:19;;;;;;;;;5.00;4.00;;;;;18.50;98.44;100870.22;5083602;27;45186;-78
2023/03/30 09:55:59;;;;;;;;;6.00;6.00;;;;;18.28;100.00;100858.03;5083041;27;47292;-78
2023/03/30 09:58:32;;;;;;;;;6.00;5.67;;;;;18.20;100.00;100860.19;5101575;27;45324;-79
2023/03/30 10:01:07;;;;;;;;;6.00;6.00;;;;;18.16;100.00;100871.38;5082554;27;45396;-77
2023/03/30 10:03:32;;;;;;;;;5.00;5.00;;;;;18.10;100.00;100871.41;5101664;27;45173;-77
2023/03/30 10:06:02;;;;;;;;;4.50;3.00;;;;;18.23;100.00;100875.88;5101011;27;45337;-77
2023/03/30 10:08:28;;;;;;;;;5.00;5.00;;;;;18.29;100.00;100877.69;5101377;27;45344;-76
2023/03/30 10:10:55;;;;;;;;;6.00;4.33;;;;;18.31;100.00;100872.88;5082506;27;45396;-76
2023/03/30 10:13:29;;;;;;;;;6.67;5.33;;;;;18.37;100.00;100873.84;5101246;27;45393;-78
2023/03/30 10:15:54;;;;;;;;;6.00;5.00;;;;;18.40;100.00;100855.41;5101019;27;45307;-79
2023/03/30 10:18:27;;;;;;;;;2.67;2.67;;;;;18.44;100.00;100863.03;5101291;27;46056;-78
2023/03/30 10:21:26;;;;;;;;;7.33;5.33;;;;;18.49;100.00;100869.38;5101122;27;45330;-79
2023/03/30 10:24:13;;;;;;;;;7.00;4.67;;;;;18.62;100.00;100873.78;5100890;27;45235;-78
2023/03/30 10:26:43;;;;;;;;;3.67;3.00;;;;;18.59;100.00;100847.34;5100984;27;45810;-79
2023/03/30 10:29:14;;;;;;;;;5.33;4.00;;;;;18.67;100.00;100865.88;5093366;27;45454;-77
2023/03/30 10:31:44;;;;;;;;;3.33;2.67;;;;;18.62;98.01;100852.25;5095231;27;45251;-79
2023/03/30 10:34:17;;;;;;;;;5.67;4.33;;;;;18.59;96.74;100865.34;5082679;27;45400;-78
2023/03/30 10:36:46;;;;;;;;;5.67;5.00;;;;;18.39;96.47;100850.25;5082175;27;46269;-79
2023/03/30 10:39:22;;;;;;;;;5.33;5.33;;;;;18.61;95.61;100865.94;5100790;27;45302;-79
2023/03/30 10:41:49;;;;;;;;;5.67;5.67;;;;;18.64;96.44;100870.88;5100823;27;45410;-80
2023/03/30 10:44:31;;;;;;;;;3.67;3.67;;;;;18.52;94.70;100871.63;5100539;27;45436;-78
2023/03/30 10:47:11;;;;;;;;;3.67;3.33;;;;;18.65;96.13;100853.69;5100952;27;45476;-80
2023/03/30 10:50:08;;;;;;;;;3.67;2.00;;;;;18.87;93.29;100858.59;5100585;27;45479;-79
2023/03/30 10:52:43;;;;;;;;;6.00;4.33;;;;;19.15;94.02;100867.97;5100841;27;45310;-79
2023/03/30 10:55:16;;;;;;;;;5.67;4.33;;;;;19.38;94.20;100863.72;5101002;27;45360;-79
2023/03/30 10:58:01;;;;;;;;;6.00;5.00;;;;;19.51;91.90;100841.94;5099904;27;45465;-78
2023/03/30 11:00:26;;;;;;;;;6.00;4.00;;;;;19.55;90.09;100855.78;5100318;27;47117;-79
2023/03/30 11:03:09;;;;;;;;;5.33;4.67;;;;;19.53;89.39;100850.63;5081885;27;45887;-79
2023/03/30 11:05:42;;;;;;;;;4.00;4.00;;;;;19.46;88.98;100846.41;5100524;27;45441;-77
2023/03/30 11:08:24;;;;;;;;;8.00;5.00;;;;;19.50;88.07;100853.78;5081967;27;46065;-79
2023/03/30 11:10:53;;;;;;;;;8.00;5.67;;;;;19.55;88.10;100845.03;5081426;27;46856;-79
2023/03/30 11:13:33;;;;;;;;;4.00;4.00;;;;;19.65;89.17;100836.34;5081947;27;45313;-79
2023/03/30 11:16:04;;;;;;;;;5.67;4.67;;;;;19.75;88.19;100823.09;5100222;27;45354;-79
2023/03/30 11:18:41;;;;;;;;;3.33;3.33;;;;;19.64;86.12;100834.72;5100553;27;45425;-80
2023/03/30 11:21:13;;;;;;;;;3.00;2.33;;;;;20.22;84.69;100815.25;5049883;28;47448;-79
2023/03/30 11:23:54;;;;;;;;;3.67;1.67;;;;;20.33;82.99;100824.38;5095620;27;45500;-78
2023/03/30 11:26:34;;;;;;;;;8.00;5.00;;;;;20.34;82.36;100820.63;5100327;27;45297;-79
2023/03/30 11:29:04;;;;;;;;;7.33;4.67;;;;;20.32;79.91;100818.16;5061644;28;46469;-79
2023/03/30 11:31:55;;;;;;;;;5.00;5.00;;;;;20.33;78.95;100825.22;5079718;27;45302;-78
2023/03/30 11:34:38;;;;;;;;;3.33;3.00;;;;;20.34;81.07;100832.25;5100171;27;45400;-78
2023/03/30 11:37:16;;;;;;;;;7.00;6.00;;;;;20.43;76.50;100828.13;5099402;27;45527;-79